Time;durP1;ratioP1;P1;durP2;ratioP2;P2;SDS_P1;SDS_P2;PMS_P1;PMS_P2;Temp;Humidity;BMP_temperature;BMP_pressure;BME280_temperature;BME280_humidity;BME280_pressure;Samples;Min_cycle;Max_cycle;Signal;HPM_P1;HPM_P2
2022/09/27 00:01:07;;;;;;;8.05;1.92;;;;;;;8.62;100.00;99241.38;12698892;22;20010;-90
2022/09/27 00:06:18;;;;;;;12.70;2.30;;;;;;;7.96;100.00;99138.25;12690079;22;20404;-89
2022/09/27 00:11:23;;;;;;;6.05;0.82;;;;;;;9.53;100.00;99359.22;12693246;22;20329;-87
2022/09/27 00:22:30;;;;;;;4.65;0.95;;;;;;;7.71;100.00;99161.06;12824908;22;20097;-87
2022/09/27 00:27:33;;;;;;;8.75;1.33;;;;;;;8.58;100.00;99275.97;12676063;22;20073;-89
2022/09/27 00:32:34;;;;;;;5.15;1.45;;;;;;;8.55;100.00;99303.94;12680812;22;20021;-87
2022/09/27 00:37:35;;;;;;;6.13;0.60;;;;;;;8.62;100.00;99281.69;12705057;22;20428;-87
2022/09/27 00:42:35;;;;;;;8.43;1.00;;;;;;;8.45;100.00;99247.22;12803661;22;20024;-90
2022/09/27 00:48:00;;;;;;;6.55;0.90;;;;;;;8.83;100.00;99301.66;12886801;22;20015;-90
2022/09/27 00:53:21;;;;;;;4.78;0.80;;;;;;;8.48;100.00;99251.31;12898663;22;20365;-90
2022/09/27 00:58:30;;;;;;;8.73;1.42;;;;;;;8.37;100.00;99257.88;12911340;22;20027;-87
2022/09/27 01:03:35;;;;;;;9.73;1.05;;;;;;;7.77;100.00;99170.06;12887014;22;20083;-89
2022/09/27 01:08:36;;;;;;;12.75;1.70;;;;;;;6.83;100.00;99009.00;12871170;22;20011;-87
2022/09/27 01:13:59;;;;;;;5.82;1.15;;;;;;;7.73;100.00;99191.75;12887414;22;20003;-87
2022/09/27 01:19:13;;;;;;;4.90;1.42;;;;;;;8.38;100.00;99287.78;12897347;22;20019;-90
2022/09/27 01:24:53;;;;;;;8.52;1.08;;;;;;;7.59;100.00;99142.19;12910046;22;20445;-90
2022/09/27 01:30:17;;;;;;;8.20;0.90;;;;;;;8.99;100.00;99371.84;12905774;22;20031;-90
2022/09/27 01:35:30;;;;;;;3.45;0.60;;;;;;;8.97;100.00;99393.25;12934598;22;20015;-90
2022/09/27 01:40:58;;;;;;;5.53;1.20;;;;;;;7.81;100.00;99173.91;12892290;22;20015;-87
2022/09/27 01:46:10;;;;;;;5.78;0.80;;;;;;;8.15;100.00;99245.34;12905673;22;20042;-91
2022/09/27 01:51:19;;;;;;;8.73;1.00;;;;;;;6.83;100.00;99020.78;12844667;22;20465;-87
2022/09/27 01:56:22;;;;;;;6.40;1.10;;;;;;;8.00;100.00;99221.53;12877631;22;20083;-88
2022/09/27 02:01:24;;;;;;;7.07;1.60;;;;;;;7.72;100.00;99194.75;12890241;22;20014;-87
2022/09/27 02:06:45;;;;;;;6.47;1.73;;;;;;;7.52;100.00;99152.59;12875518;22;20026;-87
2022/09/27 02:11:51;;;;;;;12.75;2.13;;;;;;;8.23;100.00;99299.63;12883303;22;20050;-90
2022/09/27 02:17:06;;;;;;;6.10;0.98;;;;;;;7.18;100.00;99114.06;12869663;22;20323;-91
2022/09/27 02:22:31;;;;;;;4.03;1.38;;;;;;;7.58;100.00;99167.09;12860521;22;20014;-89
2022/09/27 02:27:34;;;;;;;4.78;0.80;;;;;;;8.89;100.00;99400.16;12878660;22;20103;-90
2022/09/27 02:32:37;;;;;;;7.25;0.90;;;;;;;7.87;100.00;99231.16;12879634;22;20000;-89
2022/09/27 02:37:38;;;;;;;5.93;1.38;;;;;;;7.75;100.00;99236.13;12875700;22;20016;-90
2022/09/27 02:42:43;;;;;;;7.45;1.40;;;;;;;6.80;100.00;99036.91;12782378;22;20514;-90
2022/09/27 02:48:22;;;;;;;6.78;1.20;;;;;;;8.12;100.00;99281.53;12741730;22;20011;-89
2022/09/27 02:53:42;;;;;;;7.93;0.80;;;;;;;7.25;100.00;99139.22;12759508;22;20032;-87
2022/09/27 02:58:49;;;;;;;6.88;1.33;;;;;;;8.06;100.00;99247.00;12833810;22;20042;-87
2022/09/27 03:03:58;;;;;;;11.07;1.85;;;;;;;7.51;100.00;99177.53;12676765;22;20006;-89
2022/09/27 03:08:58;;;;;;;3.42;1.00;;;;;;;6.63;100.00;99068.06;12708858;22;20069;-90
2022/09/27 03:13:59;;;;;;;6.28;1.10;;;;;;;6.80;100.00;99091.59;12732847;22;20010;-90
2022/09/27 03:19:02;;;;;;;4.75;1.02;;;;;;;6.87;100.00;99087.50;12663642;22;20532;-88
2022/09/27 03:24:07;;;;;;;5.97;1.65;;;;;;;6.79;100.00;99079.03;12678605;22;20010;-90
2022/09/27 03:29:10;;;;;;;7.45;1.10;;;;;;;8.04;100.00;99331.41;12702151;22;20002;-90
2022/09/27 03:34:13;;;;;;;2.00;0.63;;;;;;;7.29;100.00;99175.88;12686782;22;20016;-87
2022/09/27 03:39:14;;;;;;;7.00;1.02;;;;;;;7.92;100.00;99270.59;12765161;22;20014;-86
2022/09/27 03:44:14;;;;;;;7.32;1.10;;;;;;;6.96;100.00;99164.38;12823163;22;20044;-91
2022/09/27 03:49:18;;;;;;;8.00;1.20;;;;;;;7.00;100.00;99143.59;12831343;23;20013;-90
2022/09/27 03:54:19;;;;;;;3.28;0.90;;;;;;;7.12;100.00;99191.78;12799641;23;20011;-90
2022/09/27 03:59:19;;;;;;;5.53;1.00;;;;;;;7.25;100.00;99172.06;12786409;23;20091;-88
2022/09/27 04:04:20;;;;;;;5.45;0.70;;;;;;;6.44;100.00;99039.66;12826870;23;20058;-90
2022/09/27 04:09:21;;;;;;;9.15;1.33;;;;;;;7.57;100.00;99236.69;12808370;23;20102;-86
2022/09/27 04:14:21;;;;;;;6.80;0.88;;;;;;;7.08;100.00;99178.63;12800744;23;20444;-87
2022/09/27 04:19:22;;;;;;;7.45;1.10;;;;;;;6.53;100.00;99076.31;12813843;23;20046;-90
2022/09/27 04:24:24;;;;;;;10.45;2.00;;;;;;;7.78;100.00;99270.34;12781189;23;20004;-89
2022/09/27 04:29:27;;;;;;;3.60;1.20;;;;;;;8.37;100.00;99365.69;12813219;23;20008;-87
2022/09/27 04:39:48;;;;;;;4.72;0.95;;;;;;;6.42;100.00;99112.91;12844037;23;20012;-87
2022/09/27 04:44:48;;;;;;;5.35;0.60;;;;;;;6.89;100.00;99166.56;12839309;22;20104;-89
2022/09/27 04:49:49;;;;;;;2.55;0.98;;;;;;;7.77;100.00;99328.97;12826900;23;20462;-87
2022/09/27 04:54:50;;;;;;;4.10;0.60;;;;;;;6.65;100.00;99114.31;12802500;23;20059;-91
2022/09/27 04:59:51;;;;;;;3.20;0.57;;;;;;;7.17;100.00;99213.66;12811117;23;20012;-91
2022/09/27 05:04:55;;;;;;;3.47;0.70;;;;;;;6.78;100.00;99153.97;12810939;23;20004;-87
2022/09/27 05:09:55;;;;;;;4.60;0.75;;;;;;;7.57;100.00;99307.88;12826242;23;20065;-86
2022/09/27 05:14:59;;;;;;;3.90;1.55;;;;;;;6.60;100.00;99180.75;12827381;23;20016;-86
2022/09/27 05:19:59;;;;;;;6.57;1.20;;;;;;;6.65;100.00;99163.53;12825862;23;20019;-86
2022/09/27 05:25:00;;;;;;;6.13;0.95;;;;;;;6.45;100.00;99137.78;12837701;23;20003;-90
2022/09/27 05:30:00;;;;;;;6.65;1.90;;;;;;;6.13;100.00;99107.09;12812982;23;20004;-90
2022/09/27 05:35:01;;;;;;;5.38;1.20;;;;;;;6.39;100.00;99138.06;12824292;23;20008;-86
2022/09/27 05:40:02;;;;;;;4.07;0.80;;;;;;;6.74;100.00;99213.88;12836586;23;20016;-91
2022/09/27 05:45:03;;;;;;;8.52;1.00;;;;;;;6.22;100.00;99130.06;12782193;22;20432;-91
2022/09/27 05:50:05;;;;;;;5.30;0.63;;;;;;;7.66;100.00;99355.53;12812563;23;21521;-89
2022/09/27 05:55:06;;;;;;;5.47;1.30;;;;;;;6.69;100.00;99199.38;12830897;23;20004;-88
2022/09/27 06:00:08;;;;;;;4.22;0.60;;;;;;;8.08;100.00;99423.81;12814276;23;20016;-90
2022/09/27 06:05:09;;;;;;;3.17;0.50;;;;;;;7.14;100.00;99227.91;12808806;23;20028;-90
2022/09/27 06:10:09;;;;;;;2.63;0.60;;;;;;;7.37;100.00;99254.72;12799940;23;20027;-89
2022/09/27 06:15:12;;;;;;;6.13;0.60;;;;;;;7.28;100.00;99229.00;12823423;23;20268;-90
2022/09/27 06:20:13;;;;;;;7.00;0.80;;;;;;;7.42;100.00;99243.81;12837042;23;20020;-87
2022/09/27 06:25:13;;;;;;;2.53;0.40;;;;;;;8.58;100.00;99391.16;12822925;23;20079;-86
2022/09/27 06:30:14;;;;;;;3.88;0.50;;;;;;;7.28;100.00;99190.69;12824008;23;20434;-89
2022/09/27 06:35:15;;;;;;;6.70;0.55;;;;;;;6.67;100.00;99099.25;12823402;23;20367;-87
2022/09/27 06:40:16;;;;;;;1.67;0.57;;;;;;;7.64;100.00;99235.28;12824747;23;20013;-86
2022/09/27 06:45:16;;;;;;;2.97;1.40;;;;;;;6.98;100.00;99164.94;12833093;22;20342;-86
2022/09/27 06:50:17;;;;;;;3.28;0.85;;;;;;;7.35;100.00;99191.22;12825558;22;25187;-90
2022/09/27 06:55:17;;;;;;;2.33;0.60;;;;;;;7.94;100.00;99285.69;12825039;22;20004;-90
2022/09/27 07:00:25;;;;;;;6.22;0.60;;;;;;;7.22;100.00;99162.47;12835457;22;20016;-90
2022/09/27 07:05:27;;;;;;;8.80;4.38;;;;;;;6.98;100.00;99154.00;12841251;22;20438;-90
2022/09/27 07:10:29;;;;;;;10.70;5.35;;;;;;;8.32;100.00;99373.91;12814652;22;20003;-90
2022/09/27 07:15:29;;;;;;;7.40;2.58;;;;;;;7.27;100.00;99228.16;12814832;22;20009;-91
2022/09/27 07:20:30;;;;;;;5.38;1.65;;;;;;;7.34;100.00;99222.44;12835086;22;20063;-88
2022/09/27 07:25:31;;;;;;;11.90;6.80;;;;;;;7.66;100.00;99290.63;12840943;22;20377;-87
2022/09/27 07:30:32;;;;;;;21.90;14.75;;;;;;;8.72;100.00;99456.44;12816757;22;20016;-86
2022/09/27 07:35:32;;;;;;;15.75;11.57;;;;;;;7.46;100.00;99214.78;12827804;22;19997;-85
2022/09/27 07:40:35;;;;;;;23.95;7.32;;;;;;;6.99;100.00;99152.91;12839116;22;20019;-86
2022/09/27 07:45:36;;;;;;;8.35;1.92;;;;;;;8.02;100.00;99287.03;12785287;23;20015;-86
2022/09/27 07:50:37;;;;;;;3.85;1.10;;;;;;;8.02;100.00;99320.75;12842964;23;20065;-86
2022/09/27 07:55:37;;;;;;;4.53;0.60;;;;;;;7.44;100.00;99189.59;12826617;23;20304;-87
2022/09/27 08:00:39;;;;;;;1.95;0.55;;;;;;;8.00;100.00;99298.28;12767707;23;20454;-87
2022/09/27 08:05:40;;;;;;;2.50;0.80;;;;;;;8.03;100.00;99233.88;12843070;23;20009;-87
2022/09/27 08:10:43;;;;;;;5.32;0.90;;;;;;;8.59;100.00;99370.84;12799203;23;20340;-87
2022/09/27 08:15:47;;;;;;;7.30;0.70;;;;;;;8.84;100.00;99396.59;12825847;23;20012;-86
2022/09/27 08:20:47;;;;;;;4.90;0.77;;;;;;;8.49;100.00;99296.81;12848655;23;20022;-88
2022/09/27 08:25:54;;;;;;;3.20;0.80;;;;;;;7.97;100.00;99284.31;12823874;23;20104;-87
2022/09/27 08:30:58;;;;;;;4.40;1.05;;;;;;;8.53;100.00;99330.00;12849776;23;20458;-87
2022/09/27 08:35:59;;;;;;;6.30;1.35;;;;;;;8.11;100.00;99254.41;12823482;23;20004;-87
2022/09/27 08:41:08;;;;;;;5.32;0.98;;;;;;;8.59;100.00;99318.72;12812787;23;20027;-87
2022/09/27 08:46:36;;;;;;;4.85;0.90;;;;;;;9.31;100.00;99378.81;12849091;23;20091;-89
2022/09/27 08:51:36;;;;;;;5.25;1.63;;;;;;;9.50;100.00;99437.50;12818176;23;20074;-88
2022/09/27 08:56:40;;;;;;;3.42;0.60;;;;;;;8.58;100.00;99240.31;12825212;23;20070;-90
2022/09/27 09:01:40;;;;;;;4.97;0.73;;;;;;;8.88;100.00;99302.44;12851171;23;20000;-88
2022/09/27 09:07:02;;;;;;;3.65;0.50;;;;;;;10.44;100.00;99444.06;12825579;23;20012;-90
2022/09/27 09:17:51;;;;;;;5.47;1.50;;;;;;;10.77;100.00;99416.75;12901013;23;20027;-90
2022/09/27 09:23:07;;;;;;;4.20;0.70;;;;;;;9.38;100.00;99165.09;12829722;23;20426;-90
2022/09/27 09:28:11;;;;;;;3.47;0.40;;;;;;;11.62;100.00;99500.66;12826745;23;20330;-89
2022/09/27 09:33:21;;;;;;;2.78;0.40;;;;;;;11.39;100.00;99505.03;12900890;23;20365;-89
2022/09/27 09:38:28;;;;;;;3.65;0.52;;;;;;;9.18;100.00;99192.75;12838450;23;20434;-88
2022/09/27 09:44:04;;;;;;;3.20;0.30;;;;;;;10.52;100.00;99382.06;12826724;22;20048;-89
2022/09/27 09:49:16;;;;;;;2.92;0.20;;;;;;;11.52;100.00;99504.34;12868755;23;20020;-86
2022/09/27 09:54:30;;;;;;;0.98;0.25;;;;;;;10.14;100.00;99289.16;12898002;23;20000;-86
2022/09/27 09:59:40;;;;;;;2.53;0.40;;;;;;;10.67;100.00;99244.31;12842006;23;20048;-88
2022/09/27 10:04:40;;;;;;;2.53;0.32;;;;;;;10.93;100.00;99217.25;12844081;23;20000;-89
2022/09/27 10:09:41;;;;;;;5.13;0.35;;;;;;;11.59;100.00;99396.50;12809170;23;20012;-88
2022/09/27 10:14:46;;;;;;;1.23;0.30;;;;;;;11.17;100.00;99346.63;12814958;23;20028;-86
2022/09/27 10:19:47;;;;;;;3.72;0.38;;;;;;;11.64;100.00;99292.50;12809473;23;20016;-85
2022/09/27 10:25:00;;;;;;;3.38;0.30;;;;;;;11.90;100.00;99391.38;12812537;23;20019;-85
2022/09/27 10:30:00;;;;;;;1.60;0.38;;;;;;;10.23;100.00;99196.66;12827440;23;20000;-86
2022/09/27 10:35:28;;;;;;;5.05;0.30;;;;;;;12.35;100.00;99493.03;12787336;23;19997;-86
2022/09/27 10:40:38;;;;;;;1.00;0.30;;;;;;;10.87;100.00;99237.69;12866141;23;20016;-85
2022/09/27 10:45:39;;;;;;;1.75;0.10;;;;;;;11.02;100.00;99393.66;12895309;22;20019;-87
2022/09/27 10:50:40;;;;;;;0.60;0.20;;;;;;;11.68;100.00;99497.53;12910993;22;20296;-87
2022/09/27 10:55:42;;;;;;;1.23;0.17;;;;;;;9.90;100.00;99276.19;12873160;22;20016;-85
2022/09/27 11:00:59;;;;;;;3.22;0.20;;;;;;;10.75;100.00;99504.31;12902636;22;20071;-87
2022/09/27 11:06:23;;;;;;;0.17;0.00;;;;;;;10.60;100.00;99546.56;12979732;22;20046;-86
2022/09/27 11:11:27;;;;;;;0.75;0.00;;;;;;;10.43;100.00;99500.19;12943653;22;20381;-86
2022/09/27 11:16:43;;;;;;;0.35;0.20;;;;;;;10.25;100.00;99444.75;12930148;22;20067;-86
2022/09/27 11:22:10;;;;;;;2.78;0.20;;;;;;;10.20;100.00;99439.25;12918703;22;20042;-87
2022/09/27 11:27:30;;;;;;;0.47;0.37;;;;;;;10.94;100.00;99509.94;12884208;22;20066;-87
2022/09/27 11:32:43;;;;;;;1.65;0.52;;;;;;;10.57;100.00;99440.63;12918365;22;20004;-87
2022/09/27 11:38:06;;;;;;;2.17;0.30;;;;;;;11.31;100.00;99512.03;12895045;22;20016;-87
2022/09/27 11:43:39;;;;;;;2.65;0.68;;;;;;;11.93;100.00;99516.81;12943673;22;20019;-86
2022/09/27 11:48:46;;;;;;;1.40;0.40;;;;;;;12.26;100.00;99504.75;12942948;22;20338;-86
2022/09/27 11:53:52;;;;;;;3.15;0.28;;;;;;;12.71;100.00;99460.97;12943268;22;20011;-85
2022/09/27 11:59:02;;;;;;;0.88;0.30;;;;;;;13.78;100.00;99484.88;12940092;22;20016;-86
2022/09/27 12:04:21;;;;;;;0.22;0.05;;;;;;;14.58;100.00;99470.63;12969436;22;20426;-84
2022/09/27 12:09:30;;;;;;;0.20;0.10;;;;;;;15.37;100.00;99395.00;12967806;22;20004;-86
2022/09/27 12:14:37;;;;;;;0.38;0.20;;;;;;;14.10;100.00;99308.75;12917339;22;20022;-86
2022/09/27 12:19:40;;;;;;;0.63;0.10;;;;;;;12.77;100.00;99237.19;12891446;22;20034;-87
2022/09/27 12:24:41;;;;;;;0.17;0.00;;;;;;;12.76;100.00;99312.88;12893343;22;20007;-87
2022/09/27 12:29:44;;;;;;;1.85;0.20;;;;;;;12.32;100.00;99415.25;12891671;22;20516;-86
2022/09/27 12:35:05;;;;;;;0.85;0.10;;;;;;;13.10;100.00;99508.59;12881983;22;20015;-85
2022/09/27 12:40:17;;;;;;;0.65;0.10;;;;;;;12.08;100.00;99370.41;12916736;22;20102;-87
2022/09/27 12:45:22;;;;;;;0.93;0.20;;;;;;;11.30;100.00;99284.47;12916544;22;20025;-88
2022/09/27 12:50:36;;;;;;;1.42;0.30;;;;;;;12.38;100.00;99428.94;12892164;22;20008;-85
2022/09/27 12:56:16;;;;;;;0.50;0.15;;;;;;;12.09;100.00;99333.41;12940354;22;20057;-89
2022/09/27 13:01:23;;;;;;;2.15;0.30;;;;;;;13.70;100.00;99502.19;12905862;22;20091;-85
2022/09/27 13:06:57;;;;;;;1.08;0.32;;;;;;;12.54;100.00;99368.78;12900536;22;20007;-86
2022/09/27 13:12:20;;;;;;;1.55;0.20;;;;;;;12.74;100.00;99397.97;12917587;22;20008;-88
2022/09/27 13:17:43;;;;;;;2.08;0.45;;;;;;;13.27;100.00;99500.56;12872619;22;20024;-86
2022/09/27 13:22:47;;;;;;;0.73;0.20;;;;;;;12.00;100.00;99311.22;12940444;22;20487;-86
2022/09/27 13:27:47;;;;;;;1.40;0.20;;;;;;;11.85;100.00;99406.03;12914126;22;20058;-89
2022/09/27 13:33:12;;;;;;;1.85;0.20;;;;;;;12.05;100.00;99508.91;12888006;22;20022;-88
2022/09/27 13:38:22;;;;;;;1.08;0.20;;;;;;;11.06;100.00;99390.00;12939566;22;20091;-86
2022/09/27 13:43:40;;;;;;;0.80;0.28;;;;;;;9.74;100.00;99266.44;12890002;22;20161;-87
2022/09/27 13:48:57;;;;;;;0.95;0.25;;;;;;;10.38;100.00;99373.69;12940903;22;20453;-87
2022/09/27 13:54:05;;;;;;;0.67;0.10;;;;;;;10.63;100.00;99402.88;12889315;22;20054;-86
2022/09/27 13:59:07;;;;;;;0.40;0.20;;;;;;;11.79;100.00;99539.56;12878709;22;20022;-85
2022/09/27 14:04:10;;;;;;;1.40;0.10;;;;;;;12.29;100.00;99520.69;12891167;22;20083;-85
2022/09/27 14:09:18;;;;;;;1.10;0.20;;;;;;;12.17;100.00;99437.56;12940145;22;20000;-85
2022/09/27 14:14:22;;;;;;;4.70;0.70;;;;;;;11.90;100.00;99375.63;12891815;22;19995;-85
2022/09/27 14:19:24;;;;;;;2.83;0.75;;;;;;;11.87;100.00;99453.44;12890841;22;20066;-86
2022/09/27 14:24:25;;;;;;;3.78;0.60;;;;;;;11.90;100.00;99535.59;12915749;22;20012;-85
2022/09/27 14:29:25;;;;;;;2.88;0.38;;;;;;;10.49;100.00;99408.25;12940686;22;20042;-85
2022/09/27 14:34:26;;;;;;;1.90;0.32;;;;;;;10.53;100.00;99497.34;12915779;22;20008;-85
2022/09/27 14:39:31;;;;;;;1.73;0.30;;;;;;;9.03;100.00;99339.13;12901770;22;20022;-85
2022/09/27 14:44:32;;;;;;;1.58;0.30;;;;;;;8.48;100.00;99308.91;12890538;22;20019;-85
2022/09/27 14:49:33;;;;;;;2.83;0.50;;;;;;;7.80;100.00;99295.56;12940232;22;20062;-86
2022/09/27 14:54:33;;;;;;;3.70;1.02;;;;;;;8.95;100.00;99498.94;12889284;22;20426;-86
2022/09/27 14:59:34;;;;;;;0.65;0.20;;;;;;;8.38;100.00;99432.31;12940269;22;20062;-86
2022/09/27 15:04:34;;;;;;;0.93;0.25;;;;;;;7.91;100.00;99390.34;12889928;22;20022;-86
2022/09/27 15:09:35;;;;;;;1.52;0.38;;;;;;;7.61;100.00;99347.31;12915274;22;20000;-86
2022/09/27 15:14:39;;;;;;;2.28;0.70;;;;;;;6.99;100.00;99254.16;12889745;22;20458;-86
2022/09/27 15:19:40;;;;;;;1.92;0.40;;;;;;;7.99;100.00;99376.09;12892024;22;20016;-86
2022/09/27 15:24:44;;;;;;;1.73;0.43;;;;;;;8.51;100.00;99441.91;12889067;22;20437;-88
2022/09/27 15:29:50;;;;;;;3.95;1.02;;;;;;;9.63;100.00;99572.63;12890978;22;20011;-86
2022/09/27 15:34:50;;;;;;;1.08;0.43;;;;;;;8.49;100.00;99431.22;12890651;22;20008;-86
2022/09/27 15:39:51;;;;;;;2.15;0.20;;;;;;;9.07;100.00;99521.41;12892704;22;20015;-86
2022/09/27 15:44:52;;;;;;;1.85;0.65;;;;;;;8.45;100.00;99372.53;12892628;22;20020;-86
2022/09/27 15:49:53;;;;;;;4.82;0.80;;;;;;;8.95;100.00;99493.44;12891677;22;20349;-86
2022/09/27 15:54:53;;;;;;;5.00;0.80;;;;;;;8.38;100.00;99393.91;12892105;22;20018;-85
2022/09/27 15:59:54;;;;;;;2.63;0.80;;;;;;;8.05;100.00;99331.16;12892704;22;20012;-86
2022/09/27 16:04:54;;;;;;;3.85;0.82;;;;;;;7.59;100.00;99234.50;12917181;22;20007;-85
2022/09/27 16:09:55;;;;;;;2.92;0.80;;;;;;;8.08;100.00;99362.66;12917354;22;20073;-86
2022/09/27 16:14:55;;;;;;;1.70;0.45;;;;;;;8.85;100.00;99464.09;12892738;22;20473;-87
2022/09/27 16:19:56;;;;;;;4.90;1.10;;;;;;;9.04;100.00;99511.81;12890854;22;20008;-86
2022/09/27 16:24:57;;;;;;;3.88;0.70;;;;;;;9.67;100.00;99617.69;12892676;22;20438;-85
2022/09/27 16:29:57;;;;;;;3.85;0.70;;;;;;;8.75;100.00;99475.91;12891313;22;19995;-87
2022/09/27 16:34:58;;;;;;;3.50;0.70;;;;;;;7.92;100.00;99363.75;12890829;22;20433;-86
2022/09/27 16:39:59;;;;;;;3.13;0.77;;;;;;;8.61;100.00;99469.34;12892718;22;20082;-86
2022/09/27 16:45:00;;;;;;;4.00;0.77;;;;;;;8.36;100.00;99476.44;12890807;22;20434;-86
2022/09/27 16:55:22;;;;;;;4.03;0.80;;;;;;;8.57;100.00;99532.16;12910660;22;20031;-86
2022/09/27 17:00:23;;;;;;;7.25;1.00;;;;;;;7.98;100.00;99450.38;12891152;22;20023;-86
2022/09/27 17:05:24;;;;;;;2.75;0.52;;;;;;;7.82;100.00;99447.59;12889589;22;20000;-86
2022/09/27 17:10:24;;;;;;;4.82;0.70;;;;;;;8.90;100.00;99620.53;12891780;22;20027;-86
2022/09/27 17:15:25;;;;;;;3.08;0.95;;;;;;;8.18;100.00;99521.66;12892289;22;20008;-85
2022/09/27 17:20:25;;;;;;;3.00;0.60;;;;;;;8.55;100.00;99548.06;12918557;22;20019;-85
2022/09/27 17:25:26;;;;;;;1.42;0.70;;;;;;;7.08;100.00;99355.69;12892646;22;20000;-86
2022/09/27 17:30:27;;;;;;;3.47;0.85;;;;;;;7.30;100.00;99391.06;12889502;22;20062;-86
2022/09/27 17:35:27;;;;;;;4.32;0.90;;;;;;;7.65;100.00;99479.91;12871041;22;20003;-85
2022/09/27 17:40:28;;;;;;;3.40;1.10;;;;;;;7.79;100.00;99496.63;12912798;22;20015;-85
2022/09/27 17:45:28;;;;;;;5.65;1.90;;;;;;;7.74;100.00;99500.19;12875619;22;20026;-87
2022/09/27 17:50:29;;;;;;;5.82;1.52;;;;;;;7.50;100.00;99463.41;12885520;22;20008;-86
2022/09/27 17:55:31;;;;;;;16.02;7.55;;;;;;;6.71;100.00;99342.94;12875596;22;20398;-85
2022/09/27 18:00:32;;;;;;;9.90;1.83;;;;;;;7.19;100.00;99438.63;12885307;22;20330;-84
2022/09/27 18:05:32;;;;;;;2.70;1.38;;;;;;;7.15;100.00;99467.63;12873026;22;20004;-83
2022/09/27 18:10:34;;;;;;;7.85;1.90;;;;;;;7.74;100.00;99565.94;12885663;22;20516;-84
2022/09/27 18:15:36;;;;;;;5.50;1.95;;;;;;;7.94;100.00;99550.66;12886520;22;20003;-86
2022/09/27 18:20:36;;;;;;;4.75;1.25;;;;;;;6.35;100.00;99347.41;12886957;22;20024;-87
2022/09/27 18:25:39;;;;;;;4.95;1.38;;;;;;;7.01;100.00;99443.50;12887795;22;20008;-85
2022/09/27 18:30:39;;;;;;;5.63;1.38;;;;;;;7.02;100.00;99483.44;12886705;22;20322;-85
2022/09/27 18:35:40;;;;;;;3.92;1.10;;;;;;;7.59;100.00;99563.16;12871842;22;20049;-85
2022/09/27 18:40:41;;;;;;;7.68;1.95;;;;;;;6.07;100.00;99333.00;12871577;22;20103;-88
2022/09/27 18:45:42;;;;;;;5.35;2.15;;;;;;;5.79;100.00;99313.09;12933823;22;20077;-88
2022/09/27 18:50:45;;;;;;;4.93;1.65;;;;;;;6.21;100.00;99418.91;12873614;22;20480;-91
2022/09/27 18:55:46;;;;;;;4.18;1.77;;;;;;;6.42;100.00;99432.72;12885369;22;20004;-88
2022/09/27 19:00:46;;;;;;;4.35;1.80;;;;;;;6.70;100.00;99518.25;12885975;22;20012;-85
2022/09/27 19:05:53;;;;;;;5.15;1.52;;;;;;;6.64;100.00;99488.13;12872421;22;20046;-86
2022/09/27 19:10:54;;;;;;;;;;;;;;;7.35;100.00;99596.41;12938574;22;20019;-84
2022/09/27 19:15:55;;;;;;;8.13;2.08;;;;;;;6.30;100.00;99471.19;12917997;22;20329;-85
2022/09/27 19:21:04;;;;;;;14.00;5.13;;;;;;;6.28;100.00;99476.06;12891036;22;20022;-87
2022/09/27 19:26:06;;;;;;;2.85;1.10;;;;;;;5.84;100.00;99430.56;12878493;22;20016;-88
2022/09/27 19:31:17;;;;;;;8.18;1.55;;;;;;;6.28;100.00;99462.41;12886887;22;20019;-86
2022/09/27 19:36:18;;;;;;;4.72;1.70;;;;;;;5.88;100.00;99389.09;12902478;22;20004;-86
2022/09/27 19:41:19;;;;;;;7.28;2.10;;;;;;;6.76;100.00;99571.91;12868195;22;20481;-86
2022/09/27 19:46:20;;;;;;;5.22;2.25;;;;;;;6.79;100.00;99538.56;12922450;22;20445;-86
2022/09/27 19:51:25;;;;;;;5.40;1.70;;;;;;;5.93;100.00;99408.25;12892962;22;20373;-86
2022/09/27 19:56:25;;;;;;;8.25;2.20;;;;;;;6.38;100.00;99475.34;12892491;22;20004;-86
2022/09/27 20:01:26;;;;;;;5.25;2.45;;;;;;;6.03;100.00;99422.03;12852339;22;20098;-87
2022/09/27 20:06:26;;;;;;;5.32;2.03;;;;;;;7.43;100.00;99620.56;12941330;22;20015;-86
2022/09/27 20:11:28;;;;;;;5.43;2.80;;;;;;;5.34;100.00;99322.53;12888621;22;20458;-85
2022/09/27 20:16:29;;;;;;;3.75;1.73;;;;;;;5.96;100.00;99405.06;12913252;22;20023;-87
2022/09/27 20:21:33;;;;;;;5.47;2.15;;;;;;;6.28;100.00;99461.59;12886174;22;20469;-86
2022/09/27 20:26:35;;;;;;;4.97;2.20;;;;;;;6.17;100.00;99389.63;12915158;22;20087;-86
2022/09/27 20:31:40;;;;;;;4.95;2.17;;;;;;;7.05;100.00;99543.13;12885888;22;20054;-87
2022/09/27 20:36:42;;;;;;;6.88;2.45;;;;;;;6.18;100.00;99413.97;12856042;22;20061;-87
2022/09/27 20:41:44;;;;;;;8.02;3.13;;;;;;;6.46;100.00;99470.22;12909423;22;20024;-86
2022/09/27 20:46:45;;;;;;;5.07;2.45;;;;;;;6.18;100.00;99399.47;12884070;22;20342;-86
2022/09/27 20:51:47;;;;;;;7.57;4.32;;;;;;;6.64;100.00;99460.78;12884316;22;20008;-86
2022/09/27 20:56:48;;;;;;;8.07;3.67;;;;;;;7.56;100.00;99612.97;12887060;22;20012;-86
2022/09/27 21:01:49;;;;;;;4.43;2.33;;;;;;;5.50;100.00;99292.63;12885635;22;20434;-87
2022/09/27 21:06:50;;;;;;;5.65;2.58;;;;;;;5.28;100.00;99257.25;12912568;22;20020;-89
2022/09/27 21:11:52;;;;;;;3.70;2.20;;;;;;;6.21;100.00;99382.56;12864020;22;20087;-87
2022/09/27 21:16:53;;;;;;;5.82;2.30;;;;;;;5.72;100.00;99301.56;12869724;22;20011;-88
2022/09/27 21:21:53;;;;;;;4.20;2.60;;;;;;;6.14;100.00;99393.72;12899293;22;20022;-87
2022/09/27 21:26:57;;;;;;;4.00;2.70;;;;;;;7.54;100.00;99576.81;12885915;22;20057;-87
2022/09/27 21:31:57;;;;;;;6.07;3.00;;;;;;;5.76;100.00;99319.06;12913342;22;20000;-86
2022/09/27 21:36:58;;;;;;;4.20;2.75;;;;;;;6.13;100.00;99369.38;12885996;22;20500;-86
2022/09/27 21:41:58;;;;;;;6.55;3.28;;;;;;;6.71;100.00;99457.00;12884492;22;20039;-86
2022/09/27 21:46:59;;;;;;;8.68;3.40;;;;;;;6.73;100.00;99471.22;12888115;22;20031;-87
2022/09/27 21:52:00;;;;;;;5.50;3.50;;;;;;;6.04;100.00;99394.47;12847626;22;20039;-87
2022/09/27 21:57:01;;;;;;;5.07;3.85;;;;;;;6.34;100.00;99450.44;12887290;22;20438;-88
2022/09/27 22:02:02;;;;;;;6.22;4.40;;;;;;;6.09;100.00;99388.22;12887791;22;20028;-87
2022/09/27 22:07:04;;;;;;;6.05;4.05;;;;;;;6.47;100.00;99455.47;12889360;22;20007;-87
2022/09/27 22:12:05;;;;;;;8.32;4.18;;;;;;;4.99;100.00;99239.25;12873809;22;20008;-85
2022/09/27 22:17:05;;;;;;;8.45;3.78;;;;;;;5.00;100.00;99259.16;12897563;22;20004;-86
2022/09/27 22:22:06;;;;;;;10.45;5.07;;;;;;;5.69;100.00;99367.63;12937645;22;20057;-86
2022/09/27 22:27:07;;;;;;;9.23;4.80;;;;;;;5.61;100.00;99389.94;12887893;22;20082;-86
2022/09/27 22:32:07;;;;;;;9.20;4.40;;;;;;;4.97;100.00;99300.59;12889646;22;20456;-89
2022/09/27 22:37:08;;;;;;;7.38;4.43;;;;;;;5.36;100.00;99339.47;12887359;22;20340;-87
2022/09/27 22:42:08;;;;;;;6.40;4.90;;;;;;;5.28;100.00;99361.75;12899972;22;20020;-86
2022/09/27 22:47:09;;;;;;;11.50;5.10;;;;;;;4.45;100.00;99283.63;12915646;22;20007;-86
2022/09/27 22:52:12;;;;;;;8.38;5.43;;;;;;;5.08;100.00;99339.72;12892336;22;20023;-87
2022/09/27 22:57:12;;;;;;;8.32;5.60;;;;;;;6.04;100.00;99532.97;12877675;22;20322;-85
2022/09/27 23:02:13;;;;;;;9.73;5.93;;;;;;;5.51;100.00;99425.31;12864836;22;20004;-87
2022/09/27 23:07:14;;;;;;;10.25;6.22;;;;;;;4.24;100.00;99260.75;12894620;22;20004;-86
2022/09/27 23:12:15;;;;;;;11.93;6.22;;;;;;;4.96;100.00;99354.31;12891936;22;20308;-87
2022/09/27 23:17:15;;;;;;;14.32;6.15;;;;;;;5.21;100.00;99388.44;12899450;22;20356;-87
2022/09/27 23:22:16;;;;;;;13.85;6.82;;;;;;;4.79;100.00;99326.28;12889704;22;20016;-87
2022/09/27 23:32:35;;;;;;;9.55;6.53;;;;;;;5.53;100.00;99447.72;12925222;22;20130;-85
2022/09/27 23:37:36;;;;;;;13.27;6.40;;;;;;;4.75;100.00;99331.41;12893105;22;20142;-87
2022/09/27 23:42:37;;;;;;;10.45;6.60;;;;;;;4.75;100.00;99325.97;12890966;22;20098;-86
2022/09/27 23:47:39;;;;;;;11.10;5.90;;;;;;;4.69;100.00;99307.91;12890847;22;20500;-86
2022/09/27 23:52:39;;;;;;;11.35;5.95;;;;;;;5.53;100.00;99431.34;12878546;22;20008;-86
2022/09/27 23:57:40;;;;;;;13.55;7.03;;;;;;;4.38;100.00;99283.00;12904620;22;20016;-87
